sensor_id;sensor_type;location;lat;lon;timestamp;P1;durP1;ratioP1;P2;durP2;ratioP2
41677;SDS011;27364;49.026;8.712;2022-07-10T00:01:54;4.18;;;2.83;;
41677;SDS011;27364;49.026;8.712;2022-07-10T00:04:22;4.35;;;2.70;;
41677;SDS011;27364;49.026;8.712;2022-07-10T00:06:47;4.15;;;2.58;;
41677;SDS011;27364;49.026;8.712;2022-07-10T00:09:13;4.60;;;2.85;;
41677;SDS011;27364;49.026;8.712;2022-07-10T00:11:39;5.28;;;2.97;;
41677;SDS011;27364;49.026;8.712;2022-07-10T00:14:05;4.05;;;2.90;;
41677;SDS011;27364;49.026;8.712;2022-07-10T00:16:31;3.80;;;2.92;;
41677;SDS011;27364;49.026;8.712;2022-07-10T00:18:56;4.07;;;3.28;;
41677;SDS011;27364;49.026;8.712;2022-07-10T00:21:22;4.65;;;3.00;;
41677;SDS011;27364;49.026;8.712;2022-07-10T00:23:48;4.20;;;2.85;;
41677;SDS011;27364;49.026;8.712;2022-07-10T00:26:17;4.32;;;3.13;;
41677;SDS011;27364;49.026;8.712;2022-07-10T00:28:43;5.88;;;3.40;;
41677;SDS011;27364;49.026;8.712;2022-07-10T00:31:10;3.30;;;2.78;;
41677;SDS011;27364;49.026;8.712;2022-07-10T00:36:03;4.47;;;3.17;;
41677;SDS011;27364;49.026;8.712;2022-07-10T00:38:32;3.50;;;2.88;;
41677;SDS011;27364;49.026;8.712;2022-07-10T00:40:58;5.10;;;3.00;;
41677;SDS011;27364;49.026;8.712;2022-07-10T00:43:24;3.60;;;2.75;;
41677;SDS011;27364;49.026;8.712;2022-07-10T00:45:49;3.72;;;2.47;;
41677;SDS011;27364;49.026;8.712;2022-07-10T00:48:15;3.83;;;2.53;;
41677;SDS011;27364;49.026;8.712;2022-07-10T00:50:41;3.83;;;2.50;;
41677;SDS011;27364;49.026;8.712;2022-07-10T00:53:09;4.55;;;2.90;;
41677;SDS011;27364;49.026;8.712;2022-07-10T00:55:35;3.67;;;2.67;;
41677;SDS011;27364;49.026;8.712;2022-07-10T00:58:02;4.85;;;2.72;;
41677;SDS011;27364;49.026;8.712;2022-07-10T01:02:55;4.22;;;2.78;;
41677;SDS011;27364;49.026;8.712;2022-07-10T01:05:23;3.42;;;2.67;;
41677;SDS011;27364;49.026;8.712;2022-07-10T01:07:49;5.38;;;2.92;;
41677;SDS011;27364;49.026;8.712;2022-07-10T01:10:14;3.72;;;2.80;;
41677;SDS011;27364;49.026;8.712;2022-07-10T01:12:40;4.35;;;2.95;;
41677;SDS011;27364;49.026;8.712;2022-07-10T01:15:06;4.88;;;3.15;;
41677;SDS011;27364;49.026;8.712;2022-07-10T01:17:32;4.50;;;3.17;;
41677;SDS011;27364;49.026;8.712;2022-07-10T01:20:03;3.92;;;3.00;;
41677;SDS011;27364;49.026;8.712;2022-07-10T01:22:32;3.92;;;3.13;;
41677;SDS011;27364;49.026;8.712;2022-07-10T01:24:58;4.88;;;3.08;;
41677;SDS011;27364;49.026;8.712;2022-07-10T01:27:25;4.03;;;3.17;;
41677;SDS011;27364;49.026;8.712;2022-07-10T01:29:50;4.55;;;3.50;;
41677;SDS011;27364;49.026;8.712;2022-07-10T01:32:18;4.88;;;3.28;;
41677;SDS011;27364;49.026;8.712;2022-07-10T01:34:44;4.40;;;3.60;;
41677;SDS011;27364;49.026;8.712;2022-07-10T01:37:12;9.57;;;3.80;;
41677;SDS011;27364;49.026;8.712;2022-07-10T01:42:06;5.13;;;3.80;;
41677;SDS011;27364;49.026;8.712;2022-07-10T01:44:31;5.82;;;4.10;;
41677;SDS011;27364;49.026;8.712;2022-07-10T01:46:57;6.22;;;3.80;;
41677;SDS011;27364;49.026;8.712;2022-07-10T01:49:22;5.05;;;3.75;;
41677;SDS011;27364;49.026;8.712;2022-07-10T01:51:49;5.15;;;4.13;;
41677;SDS011;27364;49.026;8.712;2022-07-10T01:54:14;6.50;;;4.78;;
41677;SDS011;27364;49.026;8.712;2022-07-10T01:56:40;6.28;;;5.45;;
41677;SDS011;27364;49.026;8.712;2022-07-10T01:59:06;7.00;;;5.60;;
41677;SDS011;27364;49.026;8.712;2022-07-10T02:01:31;6.93;;;4.97;;
41677;SDS011;27364;49.026;8.712;2022-07-10T02:03:57;6.72;;;5.05;;
41677;SDS011;27364;49.026;8.712;2022-07-10T02:06:42;6.95;;;5.07;;
41677;SDS011;27364;49.026;8.712;2022-07-10T02:09:07;7.20;;;5.20;;
41677;SDS011;27364;49.026;8.712;2022-07-10T02:11:33;7.70;;;4.85;;
41677;SDS011;27364;49.026;8.712;2022-07-10T02:13:58;5.22;;;4.40;;
41677;SDS011;27364;49.026;8.712;2022-07-10T02:16:24;7.60;;;5.13;;
41677;SDS011;27364;49.026;8.712;2022-07-10T02:18:49;5.72;;;4.38;;
41677;SDS011;27364;49.026;8.712;2022-07-10T02:21:17;6.80;;;5.07;;
41677;SDS011;27364;49.026;8.712;2022-07-10T02:23:45;7.65;;;5.03;;
41677;SDS011;27364;49.026;8.712;2022-07-10T02:26:12;6.72;;;4.80;;
41677;SDS011;27364;49.026;8.712;2022-07-10T02:28:38;6.05;;;4.63;;
41677;SDS011;27364;49.026;8.712;2022-07-10T02:31:03;7.28;;;4.70;;
41677;SDS011;27364;49.026;8.712;2022-07-10T02:33:29;6.80;;;4.78;;
41677;SDS011;27364;49.026;8.712;2022-07-10T02:35:54;7.65;;;4.90;;
41677;SDS011;27364;49.026;8.712;2022-07-10T02:38:20;7.05;;;5.05;;
41677;SDS011;27364;49.026;8.712;2022-07-10T02:40:45;5.63;;;4.38;;
41677;SDS011;27364;49.026;8.712;2022-07-10T02:43:11;6.15;;;4.63;;
41677;SDS011;27364;49.026;8.712;2022-07-10T02:45:37;7.65;;;4.70;;
41677;SDS011;27364;49.026;8.712;2022-07-10T02:48:02;5.95;;;4.57;;
41677;SDS011;27364;49.026;8.712;2022-07-10T02:50:28;7.65;;;4.70;;
41677;SDS011;27364;49.026;8.712;2022-07-10T02:52:54;5.65;;;4.40;;
41677;SDS011;27364;49.026;8.712;2022-07-10T02:55:19;6.20;;;4.95;;
41677;SDS011;27364;49.026;8.712;2022-07-10T02:57:45;9.88;;;5.00;;
41677;SDS011;27364;49.026;8.712;2022-07-10T03:00:11;5.10;;;4.07;;
41677;SDS011;27364;49.026;8.712;2022-07-10T03:02:38;5.95;;;4.32;;
41677;SDS011;27364;49.026;8.712;2022-07-10T03:05:03;7.28;;;3.97;;
41677;SDS011;27364;49.026;8.712;2022-07-10T03:07:29;5.97;;;3.97;;
41677;SDS011;27364;49.026;8.712;2022-07-10T03:09:55;4.97;;;3.67;;
41677;SDS011;27364;49.026;8.712;2022-07-10T03:12:20;5.85;;;3.50;;
41677;SDS011;27364;49.026;8.712;2022-07-10T03:14:47;5.20;;;3.00;;
41677;SDS011;27364;49.026;8.712;2022-07-10T03:17:12;5.68;;;3.08;;
41677;SDS011;27364;49.026;8.712;2022-07-10T03:19:38;5.15;;;3.35;;
41677;SDS011;27364;49.026;8.712;2022-07-10T03:22:03;5.43;;;3.17;;
41677;SDS011;27364;49.026;8.712;2022-07-10T03:24:29;5.88;;;3.58;;
41677;SDS011;27364;49.026;8.712;2022-07-10T03:26:55;5.10;;;3.30;;
41677;SDS011;27364;49.026;8.712;2022-07-10T03:29:20;5.28;;;2.90;;
41677;SDS011;27364;49.026;8.712;2022-07-10T03:31:47;6.25;;;3.63;;
41677;SDS011;27364;49.026;8.712;2022-07-10T03:34:13;3.40;;;2.67;;
41677;SDS011;27364;49.026;8.712;2022-07-10T03:36:41;5.82;;;2.78;;
41677;SDS011;27364;49.026;8.712;2022-07-10T03:39:07;6.18;;;2.95;;
41677;SDS011;27364;49.026;8.712;2022-07-10T03:41:33;4.10;;;2.72;;
41677;SDS011;27364;49.026;8.712;2022-07-10T03:43:58;4.07;;;2.53;;
41677;SDS011;27364;49.026;8.712;2022-07-10T03:46:24;3.83;;;2.17;;
41677;SDS011;27364;49.026;8.712;2022-07-10T03:48:49;5.28;;;2.50;;
41677;SDS011;27364;49.026;8.712;2022-07-10T03:51:15;3.78;;;2.55;;
41677;SDS011;27364;49.026;8.712;2022-07-10T03:53:41;4.18;;;2.45;;
41677;SDS011;27364;49.026;8.712;2022-07-10T03:56:07;3.78;;;2.70;;
41677;SDS011;27364;49.026;8.712;2022-07-10T03:58:32;5.18;;;2.28;;
41677;SDS011;27364;49.026;8.712;2022-07-10T04:00:58;6.65;;;2.30;;
41677;SDS011;27364;49.026;8.712;2022-07-10T04:03:23;3.60;;;2.28;;
41677;SDS011;27364;49.026;8.712;2022-07-10T04:05:49;4.20;;;2.35;;
41677;SDS011;27364;49.026;8.712;2022-07-10T04:08:14;3.80;;;2.10;;
41677;SDS011;27364;49.026;8.712;2022-07-10T04:10:40;4.88;;;2.35;;
41677;SDS011;27364;49.026;8.712;2022-07-10T04:13:06;5.22;;;2.90;;
41677;SDS011;27364;49.026;8.712;2022-07-10T04:15:31;3.90;;;2.40;;
41677;SDS011;27364;49.026;8.712;2022-07-10T04:17:57;4.65;;;2.25;;
41677;SDS011;27364;49.026;8.712;2022-07-10T04:20:22;4.45;;;2.08;;
41677;SDS011;27364;49.026;8.712;2022-07-10T04:22:49;3.33;;;2.10;;
41677;SDS011;27364;49.026;8.712;2022-07-10T04:25:19;4.88;;;2.40;;
41677;SDS011;27364;49.026;8.712;2022-07-10T04:27:44;3.65;;;2.00;;
41677;SDS011;27364;49.026;8.712;2022-07-10T04:30:10;4.97;;;2.10;;
41677;SDS011;27364;49.026;8.712;2022-07-10T04:32:36;3.60;;;1.90;;
41677;SDS011;27364;49.026;8.712;2022-07-10T04:35:02;3.85;;;2.13;;
41677;SDS011;27364;49.026;8.712;2022-07-10T04:37:28;4.07;;;1.92;;
41677;SDS011;27364;49.026;8.712;2022-07-10T04:39:56;7.22;;;2.45;;
41677;SDS011;27364;49.026;8.712;2022-07-10T04:42:21;4.10;;;1.83;;
41677;SDS011;27364;49.026;8.712;2022-07-10T04:44:47;4.70;;;1.90;;
41677;SDS011;27364;49.026;8.712;2022-07-10T04:47:12;4.35;;;2.03;;
41677;SDS011;27364;49.026;8.712;2022-07-10T04:49:39;4.63;;;2.05;;
41677;SDS011;27364;49.026;8.712;2022-07-10T04:52:04;4.97;;;2.17;;
41677;SDS011;27364;49.026;8.712;2022-07-10T04:54:30;4.18;;;1.95;;
41677;SDS011;27364;49.026;8.712;2022-07-10T04:56:57;6.63;;;2.25;;
41677;SDS011;27364;49.026;8.712;2022-07-10T04:59:22;4.45;;;2.00;;
41677;SDS011;27364;49.026;8.712;2022-07-10T05:01:48;4.07;;;2.20;;
41677;SDS011;27364;49.026;8.712;2022-07-10T05:04:13;3.45;;;2.10;;
41677;SDS011;27364;49.026;8.712;2022-07-10T05:06:40;3.90;;;2.10;;
41677;SDS011;27364;49.026;8.712;2022-07-10T05:09:05;4.65;;;2.42;;
41677;SDS011;27364;49.026;8.712;2022-07-10T05:11:31;3.35;;;1.77;;
41677;SDS011;27364;49.026;8.712;2022-07-10T05:13:57;3.17;;;1.80;;
41677;SDS011;27364;49.026;8.712;2022-07-10T05:16:24;3.92;;;1.98;;
41677;SDS011;27364;49.026;8.712;2022-07-10T05:18:49;6.38;;;2.17;;
41677;SDS011;27364;49.026;8.712;2022-07-10T05:21:15;5.72;;;2.47;;
41677;SDS011;27364;49.026;8.712;2022-07-10T05:23:42;4.70;;;1.85;;
41677;SDS011;27364;49.026;8.712;2022-07-10T05:26:07;4.20;;;2.20;;
41677;SDS011;27364;49.026;8.712;2022-07-10T05:28:34;3.45;;;2.10;;
41677;SDS011;27364;49.026;8.712;2022-07-10T05:31:00;3.40;;;2.10;;
41677;SDS011;27364;49.026;8.712;2022-07-10T05:33:26;4.85;;;1.90;;
41677;SDS011;27364;49.026;8.712;2022-07-10T05:35:53;4.15;;;1.98;;
41677;SDS011;27364;49.026;8.712;2022-07-10T05:38:19;3.58;;;2.08;;
41677;SDS011;27364;49.026;8.712;2022-07-10T05:40:45;3.75;;;2.03;;
41677;SDS011;27364;49.026;8.712;2022-07-10T05:43:10;4.18;;;2.40;;
41677;SDS011;27364;49.026;8.712;2022-07-10T05:45:36;3.28;;;1.55;;
41677;SDS011;27364;49.026;8.712;2022-07-10T05:48:02;4.75;;;2.05;;
41677;SDS011;27364;49.026;8.712;2022-07-10T05:50:28;3.83;;;1.80;;
41677;SDS011;27364;49.026;8.712;2022-07-10T05:52:55;4.57;;;1.90;;
41677;SDS011;27364;49.026;8.712;2022-07-10T05:55:20;4.28;;;1.80;;
41677;SDS011;27364;49.026;8.712;2022-07-10T05:57:46;3.05;;;1.80;;
41677;SDS011;27364;49.026;8.712;2022-07-10T06:00:12;3.33;;;1.88;;
41677;SDS011;27364;49.026;8.712;2022-07-10T06:02:38;3.75;;;2.00;;
41677;SDS011;27364;49.026;8.712;2022-07-10T06:05:03;3.08;;;1.90;;
41677;SDS011;27364;49.026;8.712;2022-07-10T06:07:30;3.67;;;1.65;;
41677;SDS011;27364;49.026;8.712;2022-07-10T06:09:57;4.25;;;1.65;;
41677;SDS011;27364;49.026;8.712;2022-07-10T06:12:24;2.63;;;1.48;;
41677;SDS011;27364;49.026;8.712;2022-07-10T06:14:51;6.30;;;1.73;;
41677;SDS011;27364;49.026;8.712;2022-07-10T06:17:17;4.38;;;1.90;;
41677;SDS011;27364;49.026;8.712;2022-07-10T06:19:42;3.63;;;1.80;;
41677;SDS011;27364;49.026;8.712;2022-07-10T06:22:08;3.80;;;1.60;;
41677;SDS011;27364;49.026;8.712;2022-07-10T06:24:52;2.50;;;1.50;;
41677;SDS011;27364;49.026;8.712;2022-07-10T06:45:08;5.20;;;1.70;;
41677;SDS011;27364;49.026;8.712;2022-07-10T06:47:34;3.67;;;1.52;;
41677;SDS011;27364;49.026;8.712;2022-07-10T06:50:18;3.70;;;1.60;;
41677;SDS011;27364;49.026;8.712;2022-07-10T06:52:44;4.07;;;1.50;;
41677;SDS011;27364;49.026;8.712;2022-07-10T06:55:09;2.95;;;1.60;;
41677;SDS011;27364;49.026;8.712;2022-07-10T06:57:35;3.63;;;1.50;;
41677;SDS011;27364;49.026;8.712;2022-07-10T07:00:02;4.28;;;1.70;;
41677;SDS011;27364;49.026;8.712;2022-07-10T07:02:29;6.45;;;1.85;;
41677;SDS011;27364;49.026;8.712;2022-07-10T07:04:54;3.67;;;1.60;;
41677;SDS011;27364;49.026;8.712;2022-07-10T07:07:20;4.13;;;1.83;;
41677;SDS011;27364;49.026;8.712;2022-07-10T07:09:46;5.15;;;1.63;;
41677;SDS011;27364;49.026;8.712;2022-07-10T07:12:14;2.65;;;1.50;;
41677;SDS011;27364;49.026;8.712;2022-07-10T07:14:40;4.43;;;2.10;;
41677;SDS011;27364;49.026;8.712;2022-07-10T07:17:05;5.15;;;1.50;;
41677;SDS011;27364;49.026;8.712;2022-07-10T07:19:33;3.63;;;1.50;;
41677;SDS011;27364;49.026;8.712;2022-07-10T07:22:18;5.00;;;1.73;;
41677;SDS011;27364;49.026;8.712;2022-07-10T07:25:07;3.75;;;1.33;;
41677;SDS011;27364;49.026;8.712;2022-07-10T07:27:35;3.97;;;1.52;;
41677;SDS011;27364;49.026;8.712;2022-07-10T07:30:05;5.13;;;1.77;;
41677;SDS011;27364;49.026;8.712;2022-07-10T07:32:32;5.97;;;1.60;;
41677;SDS011;27364;49.026;8.712;2022-07-10T07:34:58;3.17;;;1.48;;
41677;SDS011;27364;49.026;8.712;2022-07-10T07:40:21;4.55;;;1.55;;
41677;SDS011;27364;49.026;8.712;2022-07-10T07:42:54;3.42;;;1.52;;
41677;SDS011;27364;49.026;8.712;2022-07-10T07:45:21;3.85;;;1.70;;
41677;SDS011;27364;49.026;8.712;2022-07-10T07:47:48;3.28;;;1.60;;
41677;SDS011;27364;49.026;8.712;2022-07-10T07:52:42;3.70;;;1.38;;
41677;SDS011;27364;49.026;8.712;2022-07-10T07:55:08;5.22;;;1.67;;
41677;SDS011;27364;49.026;8.712;2022-07-10T07:57:34;2.75;;;1.50;;
41677;SDS011;27364;49.026;8.712;2022-07-10T08:00:00;3.10;;;1.58;;
41677;SDS011;27364;49.026;8.712;2022-07-10T08:02:25;5.97;;;1.75;;
41677;SDS011;27364;49.026;8.712;2022-07-10T08:04:51;3.00;;;1.80;;
41677;SDS011;27364;49.026;8.712;2022-07-10T08:07:16;2.65;;;1.40;;
41677;SDS011;27364;49.026;8.712;2022-07-10T08:09:42;4.05;;;1.65;;
41677;SDS011;27364;49.026;8.712;2022-07-10T08:12:09;4.93;;;1.50;;
41677;SDS011;27364;49.026;8.712;2022-07-10T08:14:35;5.47;;;1.52;;
41677;SDS011;27364;49.026;8.712;2022-07-10T08:17:00;3.45;;;1.40;;
41677;SDS011;27364;49.026;8.712;2022-07-10T08:19:26;2.97;;;1.40;;
41677;SDS011;27364;49.026;8.712;2022-07-10T08:21:51;2.67;;;1.48;;
41677;SDS011;27364;49.026;8.712;2022-07-10T08:24:17;4.28;;;1.40;;
41677;SDS011;27364;49.026;8.712;2022-07-10T08:26:43;2.60;;;1.40;;
41677;SDS011;27364;49.026;8.712;2022-07-10T08:29:09;4.00;;;1.50;;
41677;SDS011;27364;49.026;8.712;2022-07-10T08:31:35;4.22;;;1.60;;
41677;SDS011;27364;49.026;8.712;2022-07-10T08:34:00;5.93;;;1.85;;
41677;SDS011;27364;49.026;8.712;2022-07-10T08:36:26;3.53;;;1.65;;
41677;SDS011;27364;49.026;8.712;2022-07-10T08:38:52;4.38;;;1.42;;
41677;SDS011;27364;49.026;8.712;2022-07-10T08:41:24;2.17;;;1.40;;
41677;SDS011;27364;49.026;8.712;2022-07-10T08:43:51;3.15;;;1.50;;
41677;SDS011;27364;49.026;8.712;2022-07-10T08:46:17;3.22;;;1.40;;
41677;SDS011;27364;49.026;8.712;2022-07-10T08:48:45;3.65;;;1.67;;
41677;SDS011;27364;49.026;8.712;2022-07-10T08:51:13;2.40;;;1.33;;
41677;SDS011;27364;49.026;8.712;2022-07-10T08:54:00;3.08;;;1.30;;
41677;SDS011;27364;49.026;8.712;2022-07-10T08:56:29;4.07;;;1.40;;
41677;SDS011;27364;49.026;8.712;2022-07-10T08:58:55;2.97;;;1.45;;
41677;SDS011;27364;49.026;8.712;2022-07-10T09:01:21;2.80;;;1.25;;
41677;SDS011;27364;49.026;8.712;2022-07-10T09:03:48;5.95;;;1.65;;
41677;SDS011;27364;49.026;8.712;2022-07-10T09:06:15;2.70;;;1.30;;
41677;SDS011;27364;49.026;8.712;2022-07-10T09:11:30;3.85;;;1.30;;
41677;SDS011;27364;49.026;8.712;2022-07-10T09:13:58;2.33;;;1.15;;
41677;SDS011;27364;49.026;8.712;2022-07-10T09:16:30;2.08;;;1.17;;
41677;SDS011;27364;49.026;8.712;2022-07-10T09:18:58;2.40;;;1.30;;
41677;SDS011;27364;49.026;8.712;2022-07-10T09:21:53;3.88;;;1.40;;
41677;SDS011;27364;49.026;8.712;2022-07-10T09:24:24;2.85;;;1.10;;
41677;SDS011;27364;49.026;8.712;2022-07-10T09:29:22;1.77;;;1.00;;
41677;SDS011;27364;49.026;8.712;2022-07-10T09:31:54;1.98;;;1.00;;
41677;SDS011;27364;49.026;8.712;2022-07-10T09:37:41;3.35;;;1.42;;
41677;SDS011;27364;49.026;8.712;2022-07-10T09:40:08;3.53;;;1.23;;
41677;SDS011;27364;49.026;8.712;2022-07-10T09:42:36;3.45;;;1.20;;
41677;SDS011;27364;49.026;8.712;2022-07-10T09:48:11;4.55;;;1.40;;
41677;SDS011;27364;49.026;8.712;2022-07-10T09:50:30;2.17;;;1.38;;
41677;SDS011;27364;49.026;8.712;2022-07-10T09:53:01;3.53;;;1.13;;
41677;SDS011;27364;49.026;8.712;2022-07-10T09:55:35;3.55;;;1.45;;
41677;SDS011;27364;49.026;8.712;2022-07-10T09:58:07;1.70;;;1.10;;
41677;SDS011;27364;49.026;8.712;2022-07-10T10:00:40;2.55;;;1.40;;
41677;SDS011;27364;49.026;8.712;2022-07-10T10:03:08;4.05;;;1.40;;
41677;SDS011;27364;49.026;8.712;2022-07-10T10:05:37;1.75;;;1.08;;
41677;SDS011;27364;49.026;8.712;2022-07-10T10:08:29;2.92;;;1.17;;
41677;SDS011;27364;49.026;8.712;2022-07-10T10:10:56;2.33;;;1.17;;
41677;SDS011;27364;49.026;8.712;2022-07-10T10:13:24;2.97;;;1.17;;
41677;SDS011;27364;49.026;8.712;2022-07-10T10:15:55;3.38;;;1.35;;
41677;SDS011;27364;49.026;8.712;2022-07-10T10:18:21;2.03;;;0.90;;
41677;SDS011;27364;49.026;8.712;2022-07-10T10:20:49;2.33;;;1.10;;
41677;SDS011;27364;49.026;8.712;2022-07-10T10:23:17;4.43;;;0.93;;
41677;SDS011;27364;49.026;8.712;2022-07-10T10:25:45;2.15;;;1.08;;
41677;SDS011;27364;49.026;8.712;2022-07-10T10:28:12;4.30;;;1.10;;
41677;SDS011;27364;49.026;8.712;2022-07-10T10:30:39;5.30;;;1.20;;
41677;SDS011;27364;49.026;8.712;2022-07-10T10:36:05;2.72;;;1.00;;
41677;SDS011;27364;49.026;8.712;2022-07-10T10:41:23;1.45;;;0.80;;
41677;SDS011;27364;49.026;8.712;2022-07-10T10:46:33;1.42;;;0.90;;
41677;SDS011;27364;49.026;8.712;2022-07-10T10:49:06;4.37;;;1.50;;
41677;SDS011;27364;49.026;8.712;2022-07-10T10:54:28;2.25;;;0.95;;
41677;SDS011;27364;49.026;8.712;2022-07-10T10:57:14;1.45;;;0.70;;
41677;SDS011;27364;49.026;8.712;2022-07-10T10:59:44;2.75;;;1.15;;
41677;SDS011;27364;49.026;8.712;2022-07-10T11:02:27;3.33;;;1.30;;
41677;SDS011;27364;49.026;8.712;2022-07-10T11:07:55;1.80;;;1.00;;
41677;SDS011;27364;49.026;8.712;2022-07-10T11:15:35;3.78;;;1.20;;
41677;SDS011;27364;49.026;8.712;2022-07-10T11:18:16;3.55;;;1.20;;
41677;SDS011;27364;49.026;8.712;2022-07-10T11:25:52;1.42;;;0.77;;
41677;SDS011;27364;49.026;8.712;2022-07-10T11:28:41;1.05;;;0.65;;
41677;SDS011;27364;49.026;8.712;2022-07-10T11:31:25;1.55;;;0.77;;
41677;SDS011;27364;49.026;8.712;2022-07-10T11:33:52;3.70;;;1.27;;
41677;SDS011;27364;49.026;8.712;2022-07-10T11:36:19;1.20;;;0.73;;
41677;SDS011;27364;49.026;8.712;2022-07-10T11:39:01;4.22;;;1.10;;
41677;SDS011;27364;49.026;8.712;2022-07-10T11:41:29;1.23;;;0.68;;
41677;SDS011;27364;49.026;8.712;2022-07-10T11:43:56;2.83;;;1.13;;
41677;SDS011;27364;49.026;8.712;2022-07-10T11:46:23;3.30;;;0.90;;
41677;SDS011;27364;49.026;8.712;2022-07-10T11:48:53;1.55;;;0.82;;
41677;SDS011;27364;49.026;8.712;2022-07-10T11:51:22;3.15;;;1.10;;
41677;SDS011;27364;49.026;8.712;2022-07-10T11:54:00;3.42;;;1.17;;
41677;SDS011;27364;49.026;8.712;2022-07-10T11:56:28;2.67;;;1.17;;
41677;SDS011;27364;49.026;8.712;2022-07-10T11:58:59;3.35;;;1.00;;
41677;SDS011;27364;49.026;8.712;2022-07-10T12:01:29;2.83;;;1.00;;
41677;SDS011;27364;49.026;8.712;2022-07-10T12:04:00;1.48;;;0.80;;
41677;SDS011;27364;49.026;8.712;2022-07-10T12:06:28;1.65;;;0.80;;
41677;SDS011;27364;49.026;8.712;2022-07-10T12:08:55;2.30;;;0.95;;
41677;SDS011;27364;49.026;8.712;2022-07-10T12:11:21;2.15;;;0.80;;
41677;SDS011;27364;49.026;8.712;2022-07-10T12:13:48;2.33;;;0.85;;
41677;SDS011;27364;49.026;8.712;2022-07-10T12:16:16;1.70;;;0.70;;
41677;SDS011;27364;49.026;8.712;2022-07-10T12:18:42;2.58;;;1.00;;
41677;SDS011;27364;49.026;8.712;2022-07-10T12:21:08;1.58;;;0.80;;
41677;SDS011;27364;49.026;8.712;2022-07-10T12:23:34;3.42;;;1.00;;
41677;SDS011;27364;49.026;8.712;2022-07-10T12:26:03;2.75;;;1.00;;
41677;SDS011;27364;49.026;8.712;2022-07-10T12:28:29;1.58;;;0.80;;
41677;SDS011;27364;49.026;8.712;2022-07-10T12:30:54;1.40;;;0.80;;
41677;SDS011;27364;49.026;8.712;2022-07-10T12:33:21;2.33;;;0.75;;
41677;SDS011;27364;49.026;8.712;2022-07-10T12:38:21;2.78;;;1.00;;
41677;SDS011;27364;49.026;8.712;2022-07-10T12:40:51;2.15;;;0.93;;
41677;SDS011;27364;49.026;8.712;2022-07-10T12:43:48;5.40;;;1.35;;
41677;SDS011;27364;49.026;8.712;2022-07-10T12:51:42;3.08;;;1.17;;
41677;SDS011;27364;49.026;8.712;2022-07-10T12:54:30;2.05;;;0.90;;
41677;SDS011;27364;49.026;8.712;2022-07-10T12:56:59;2.15;;;0.88;;
41677;SDS011;27364;49.026;8.712;2022-07-10T12:59:28;2.42;;;0.98;;
41677;SDS011;27364;49.026;8.712;2022-07-10T13:01:56;2.65;;;0.80;;
41677;SDS011;27364;49.026;8.712;2022-07-10T13:04:24;1.73;;;0.93;;
41677;SDS011;27364;49.026;8.712;2022-07-10T13:06:51;3.67;;;1.17;;
41677;SDS011;27364;49.026;8.712;2022-07-10T13:09:18;2.63;;;1.02;;
41677;SDS011;27364;49.026;8.712;2022-07-10T13:11:44;1.92;;;0.90;;
41677;SDS011;27364;49.026;8.712;2022-07-10T13:14:09;2.58;;;1.17;;
41677;SDS011;27364;49.026;8.712;2022-07-10T13:16:35;3.10;;;1.20;;
41677;SDS011;27364;49.026;8.712;2022-07-10T13:19:00;3.00;;;0.90;;
41677;SDS011;27364;49.026;8.712;2022-07-10T13:21:26;1.98;;;0.90;;
41677;SDS011;27364;49.026;8.712;2022-07-10T13:23:51;2.17;;;0.80;;
41677;SDS011;27364;49.026;8.712;2022-07-10T13:26:17;2.85;;;1.10;;
41677;SDS011;27364;49.026;8.712;2022-07-10T13:28:43;3.50;;;1.13;;
41677;SDS011;27364;49.026;8.712;2022-07-10T13:31:08;2.20;;;1.00;;
41677;SDS011;27364;49.026;8.712;2022-07-10T13:33:34;2.40;;;0.80;;
41677;SDS011;27364;49.026;8.712;2022-07-10T13:36:00;4.28;;;1.10;;
41677;SDS011;27364;49.026;8.712;2022-07-10T13:40:53;1.73;;;1.00;;
41677;SDS011;27364;49.026;8.712;2022-07-10T13:43:18;1.92;;;0.80;;
41677;SDS011;27364;49.026;8.712;2022-07-10T13:45:46;3.47;;;1.20;;
41677;SDS011;27364;49.026;8.712;2022-07-10T13:48:12;2.15;;;0.80;;
41677;SDS011;27364;49.026;8.712;2022-07-10T13:50:39;4.97;;;1.08;;
41677;SDS011;27364;49.026;8.712;2022-07-10T13:53:05;3.25;;;1.17;;
41677;SDS011;27364;49.026;8.712;2022-07-10T13:55:30;3.47;;;1.05;;
41677;SDS011;27364;49.026;8.712;2022-07-10T13:57:58;3.33;;;1.20;;
41677;SDS011;27364;49.026;8.712;2022-07-10T14:00:23;2.45;;;1.00;;
41677;SDS011;27364;49.026;8.712;2022-07-10T14:02:49;3.08;;;1.20;;
41677;SDS011;27364;49.026;8.712;2022-07-10T14:05:15;2.17;;;1.00;;
41677;SDS011;27364;49.026;8.712;2022-07-10T14:07:41;1.75;;;0.85;;
41677;SDS011;27364;49.026;8.712;2022-07-10T14:10:06;2.35;;;1.00;;
41677;SDS011;27364;49.026;8.712;2022-07-10T14:12:33;4.22;;;1.00;;
41677;SDS011;27364;49.026;8.712;2022-07-10T14:14:59;3.38;;;1.23;;
41677;SDS011;27364;49.026;8.712;2022-07-10T14:17:25;4.10;;;1.02;;
41677;SDS011;27364;49.026;8.712;2022-07-10T14:19:51;3.13;;;1.05;;
41677;SDS011;27364;49.026;8.712;2022-07-10T14:22:16;2.42;;;1.02;;
41677;SDS011;27364;49.026;8.712;2022-07-10T14:24:42;3.25;;;1.10;;
41677;SDS011;27364;49.026;8.712;2022-07-10T14:27:07;2.47;;;1.00;;
41677;SDS011;27364;49.026;8.712;2022-07-10T14:29:33;3.55;;;1.10;;
41677;SDS011;27364;49.026;8.712;2022-07-10T14:31:59;2.17;;;1.20;;
41677;SDS011;27364;49.026;8.712;2022-07-10T14:34:25;3.40;;;1.00;;
41677;SDS011;27364;49.026;8.712;2022-07-10T14:36:53;2.75;;;0.98;;
41677;SDS011;27364;49.026;8.712;2022-07-10T14:39:18;2.95;;;1.00;;
41677;SDS011;27364;49.026;8.712;2022-07-10T14:41:44;3.58;;;1.02;;
41677;SDS011;27364;49.026;8.712;2022-07-10T14:44:10;3.03;;;1.08;;
41677;SDS011;27364;49.026;8.712;2022-07-10T14:46:35;2.10;;;1.02;;
41677;SDS011;27364;49.026;8.712;2022-07-10T14:49:01;5.03;;;1.40;;
41677;SDS011;27364;49.026;8.712;2022-07-10T14:51:26;3.33;;;1.10;;
41677;SDS011;27364;49.026;8.712;2022-07-10T14:53:53;3.70;;;1.23;;
41677;SDS011;27364;49.026;8.712;2022-07-10T14:56:19;3.22;;;1.17;;
41677;SDS011;27364;49.026;8.712;2022-07-10T14:58:45;3.25;;;1.30;;
41677;SDS011;27364;49.026;8.712;2022-07-10T15:01:11;1.63;;;0.93;;
41677;SDS011;27364;49.026;8.712;2022-07-10T15:03:37;3.65;;;1.60;;
41677;SDS011;27364;49.026;8.712;2022-07-10T15:06:03;2.30;;;1.20;;
41677;SDS011;27364;49.026;8.712;2022-07-10T15:08:29;3.97;;;1.30;;
41677;SDS011;27364;49.026;8.712;2022-07-10T15:10:55;3.15;;;1.20;;
41677;SDS011;27364;49.026;8.712;2022-07-10T15:13:21;2.67;;;1.13;;
41677;SDS011;27364;49.026;8.712;2022-07-10T15:15:46;3.72;;;1.17;;
41677;SDS011;27364;49.026;8.712;2022-07-10T15:20:40;2.67;;;1.10;;
41677;SDS011;27364;49.026;8.712;2022-07-10T15:23:05;2.60;;;1.00;;
41677;SDS011;27364;49.026;8.712;2022-07-10T15:25:31;2.40;;;1.20;;
41677;SDS011;27364;49.026;8.712;2022-07-10T15:27:56;4.22;;;1.15;;
41677;SDS011;27364;49.026;8.712;2022-07-10T15:30:22;3.45;;;1.20;;
41677;SDS011;27364;49.026;8.712;2022-07-10T15:32:48;3.67;;;1.30;;
41677;SDS011;27364;49.026;8.712;2022-07-10T15:35:14;2.95;;;1.30;;
41677;SDS011;27364;49.026;8.712;2022-07-10T15:37:39;2.60;;;1.25;;
41677;SDS011;27364;49.026;8.712;2022-07-10T15:40:05;2.83;;;1.20;;
41677;SDS011;27364;49.026;8.712;2022-07-10T15:42:31;3.28;;;1.10;;
41677;SDS011;27364;49.026;8.712;2022-07-10T15:44:57;2.08;;;1.08;;
41677;SDS011;27364;49.026;8.712;2022-07-10T15:47:22;3.72;;;1.33;;
41677;SDS011;27364;49.026;8.712;2022-07-10T15:49:48;3.13;;;1.13;;
41677;SDS011;27364;49.026;8.712;2022-07-10T15:52:14;3.13;;;1.10;;
41677;SDS011;27364;49.026;8.712;2022-07-10T15:54:40;4.28;;;1.52;;
41677;SDS011;27364;49.026;8.712;2022-07-10T15:57:06;3.85;;;1.73;;
41677;SDS011;27364;49.026;8.712;2022-07-10T15:59:32;2.83;;;1.50;;
41677;SDS011;27364;49.026;8.712;2022-07-10T16:01:59;3.40;;;1.30;;
41677;SDS011;27364;49.026;8.712;2022-07-10T16:04:26;4.03;;;1.52;;
41677;SDS011;27364;49.026;8.712;2022-07-10T16:06:52;2.25;;;1.20;;
41677;SDS011;27364;49.026;8.712;2022-07-10T16:09:18;3.05;;;1.55;;